Terminal Aerodrome Forecast
Issued by NWS Cleveland, OH

Home | Current Version | Previous Version | Text Only | Print | Product List | Glossary On
Versions: 1 2 3 4 5 6 7 8 9 10 11 12 13 14 15 16 17 18 19 20 21 22
260
FTUS41 KCLE 251154 AAA
TAFMFD
TAF AMD
KMFD 251154Z 2512/2612 24006KT 6SM BR SCT014
      TEMPO 2512/2514 BKN014
     FM251400 24007KT P6SM VCSH SCT045 BKN150
     FM251800 26008KT P6SM SCT035 BKN100
     FM260000 26005KT P6SM SKC
      TEMPO 2609/2612 5SM BR=

USA.gov is the U.S. government's official web portal to all federal, state and local government web resources and services.